Terminal Aerodrome Forecast
Issued by NWS Louisville, KY

Home | Current Version | Previous Version | Text Only | Print | Product List | Glossary On
Versions: 1 2 3 4 5 6 7 8 9 10 11 12 13 14 15 16 17 18 19 20 21 22 23 24
460
FTUS43 KLMK 301338 AAA
TAFSDF
TAF AMD
KSDF 301338Z 3014/0118 VRB04KT 5SM BR BKN005 OVC050
      TEMPO 3014/3016 3SM -RA BR SCT005
     FM301600 21004KT P6SM VCSH OVC020
     FM010000 VRB04KT P6SM BKN020=

USA.gov is the U.S. government's official web portal to all federal, state and local government web resources and services.